sensor_id;sensor_type;location;lat;lon;timestamp;pressure;altitude;pressure_sealevel;temperature;humidity
73306;BME280;61530;51.158;0.880;2023-09-19T00:00:38;1005.65;;;13.125;38.9672
73306;BME280;61530;51.158;0.880;2023-09-19T00:01:44;1005.73;;;13.125;37.1295
73306;BME280;61530;51.158;0.880;2023-09-19T00:02:53;1005.76;;;13.0;36.7422
73306;BME280;61530;51.158;0.880;2023-09-19T00:03:56;1005.74;;;13.0625;36.3793
73306;BME280;61530;51.158;0.880;2023-09-19T00:04:56;1005.76;;;13.0625;36.9795
73306;BME280;61530;51.158;0.880;2023-09-19T00:06:02;1005.69;;;13.0625;36.5976
73306;BME280;61530;51.158;0.880;2023-09-19T00:07:03;1005.68;;;13.0;37.7305
73306;BME280;61530;51.158;0.880;2023-09-19T00:08:08;1005.69;;;13.1875;37.4072
73306;BME280;61530;51.158;0.880;2023-09-19T00:09:08;1005.66;;;13.125;38.1583
73306;BME280;61530;51.158;0.880;2023-09-19T00:10:14;1005.68;;;13.1875;37.7299
73306;BME280;61530;51.158;0.880;2023-09-19T00:11:20;1005.68;;;13.1875;38.0769
73306;BME280;61530;51.158;0.880;2023-09-19T00:12:26;1005.66;;;13.0625;38.5973
73306;BME280;61530;51.158;0.880;2023-09-19T00:13:26;1005.64;;;13.0;37.0725
73306;BME280;61530;51.158;0.880;2023-09-19T00:14:32;1005.63;;;13.0625;37.0324
73306;BME280;61530;51.158;0.880;2023-09-19T00:15:37;1005.62;;;13.125;37.5927
73306;BME280;61530;51.158;0.880;2023-09-19T00:16:38;1005.63;;;13.125;38.2683
73306;BME280;61530;51.158;0.880;2023-09-19T00:17:38;1005.63;;;13.0625;38.118
73306;BME280;61530;51.158;0.880;2023-09-19T00:18:44;1005.57;;;13.0625;37.6324
73306;BME280;61530;51.158;0.880;2023-09-19T00:19:44;1005.55;;;13.0625;36.7137
73306;BME280;61530;51.158;0.880;2023-09-19T00:20:50;1005.56;;;13.0625;36.6343
73306;BME280;61530;51.158;0.880;2023-09-19T00:21:50;1005.59;;;13.0;37.1595
73306;BME280;61530;51.158;0.880;2023-09-19T00:22:56;1005.62;;;13.0625;36.9646
73306;BME280;61530;51.158;0.880;2023-09-19T00:23:56;1005.63;;;13.0;36.6114
73306;BME280;61530;51.158;0.880;2023-09-19T00:25:02;1005.65;;;12.9375;37.1195
73306;BME280;61530;51.158;0.880;2023-09-19T00:26:02;1005.66;;;12.9375;37.1073
73306;BME280;61530;51.158;0.880;2023-09-19T00:27:07;1005.64;;;13.0;37.4321
73306;BME280;61530;51.158;0.880;2023-09-19T00:28:08;1005.62;;;12.875;36.9402
73306;BME280;61530;51.158;0.880;2023-09-19T00:29:08;1005.63;;;12.9375;37.5997
73306;BME280;61530;51.158;0.880;2023-09-19T00:30:14;1005.65;;;13.0;37.1385
73306;BME280;61530;51.158;0.880;2023-09-19T00:31:14;1005.67;;;13.0;37.9692
73306;BME280;61530;51.158;0.880;2023-09-19T00:32:20;1005.7;;;13.0;37.3217
73306;BME280;61530;51.158;0.880;2023-09-19T00:33:20;1005.7;;;13.0;37.64
73306;BME280;61530;51.158;0.880;2023-09-19T00:34:26;1005.71;;;12.9375;37.9866
73306;BME280;61530;51.158;0.880;2023-09-19T00:35:26;1005.73;;;13.0;37.9107
73306;BME280;61530;51.158;0.880;2023-09-19T00:36:32;1005.75;;;12.875;37.2811
73306;BME280;61530;51.158;0.880;2023-09-19T00:37:32;1005.74;;;12.9375;37.2934
73306;BME280;61530;51.158;0.880;2023-09-19T00:38:38;1005.78;;;12.9375;38.2527
73306;BME280;61530;51.158;0.880;2023-09-19T00:39:38;1005.77;;;13.0;37.4956
73306;BME280;61530;51.158;0.880;2023-09-19T00:40:44;1005.79;;;12.9375;37.2361
73306;BME280;61530;51.158;0.880;2023-09-19T00:41:50;1005.75;;;12.9375;37.9753
73306;BME280;61530;51.158;0.880;2023-09-19T00:42:58;1005.74;;;12.875;37.5934
73306;BME280;61530;51.158;0.880;2023-09-19T00:44:03;1005.75;;;12.9375;37.4612
73306;BME280;61530;51.158;0.880;2023-09-19T00:45:09;1005.7;;;13.0;36.9413
73306;BME280;61530;51.158;0.880;2023-09-19T00:46:08;1005.71;;;12.875;37.1839
73306;BME280;61530;51.158;0.880;2023-09-19T00:47:14;1005.74;;;12.9375;37.2702
73306;BME280;61530;51.158;0.880;2023-09-19T00:48:14;1005.77;;;12.875;37.4335
73306;BME280;61530;51.158;0.880;2023-09-19T00:49:20;1005.84;;;12.8125;38.2839
73306;BME280;61530;51.158;0.880;2023-09-19T00:50:27;1005.86;;;12.75;37.8679
73306;BME280;61530;51.158;0.880;2023-09-19T00:51:32;1005.85;;;12.8125;37.7405
73306;BME280;61530;51.158;0.880;2023-09-19T00:52:38;1005.86;;;12.8125;37.7343
73306;BME280;61530;51.158;0.880;2023-09-19T00:53:38;1005.89;;;12.875;38.0105
73306;BME280;61530;51.158;0.880;2023-09-19T00:54:38;1005.86;;;12.9375;38.5819
73306;BME280;61530;51.158;0.880;2023-09-19T00:55:44;1005.83;;;12.8125;37.3806
73306;BME280;61530;51.158;0.880;2023-09-19T00:56:45;1005.86;;;12.8125;37.8716
73306;BME280;61530;51.158;0.880;2023-09-19T00:57:50;1005.82;;;12.8125;37.745
73306;BME280;61530;51.158;0.880;2023-09-19T00:58:50;1005.83;;;12.8125;38.6393
73306;BME280;61530;51.158;0.880;2023-09-19T00:59:57;1005.83;;;12.8125;38.039
73306;BME280;61530;51.158;0.880;2023-09-19T01:01:02;1005.85;;;12.875;38.2236
73306;BME280;61530;51.158;0.880;2023-09-19T01:02:08;1005.85;;;12.875;38.5764
73306;BME280;61530;51.158;0.880;2023-09-19T01:03:08;1005.85;;;12.875;38.5817
73306;BME280;61530;51.158;0.880;2023-09-19T01:04:14;1005.82;;;12.9375;37.9985
73306;BME280;61530;51.158;0.880;2023-09-19T01:05:14;1005.83;;;12.9375;37.8422
73306;BME280;61530;51.158;0.880;2023-09-19T01:06:20;1005.83;;;12.8125;37.8259
73306;BME280;61530;51.158;0.880;2023-09-19T01:07:26;1005.83;;;12.875;37.6759
73306;BME280;61530;51.158;0.880;2023-09-19T01:08:32;1005.81;;;12.8125;37.8431
73306;BME280;61530;51.158;0.880;2023-09-19T01:09:32;1005.8;;;12.8125;37.8424
73306;BME280;61530;51.158;0.880;2023-09-19T01:10:46;1005.76;;;12.875;37.5834
73306;BME280;61530;51.158;0.880;2023-09-19T01:11:42;1005.77;;;12.9375;38.53
73306;BME280;61530;51.158;0.880;2023-09-19T01:12:51;1005.78;;;13.0625;38.0222
73306;BME280;61530;51.158;0.880;2023-09-19T01:13:56;1005.76;;;12.875;37.6986
73306;BME280;61530;51.158;0.880;2023-09-19T01:14:55;1005.73;;;12.875;37.9989
73306;BME280;61530;51.158;0.880;2023-09-19T01:15:59;1005.74;;;12.875;38.1666
73306;BME280;61530;51.158;0.880;2023-09-19T01:17:03;1005.73;;;12.875;38.2762
73306;BME280;61530;51.158;0.880;2023-09-19T01:18:02;1005.73;;;12.8125;38.6409
73306;BME280;61530;51.158;0.880;2023-09-19T01:19:28;1005.72;;;12.875;38.4617
73306;BME280;61530;51.158;0.880;2023-09-19T01:20:21;1005.76;;;12.875;38.1845
73306;BME280;61530;51.158;0.880;2023-09-19T01:21:21;1005.73;;;12.8125;37.942
73306;BME280;61530;51.158;0.880;2023-09-19T01:22:17;1005.77;;;12.875;38.5707
73306;BME280;61530;51.158;0.880;2023-09-19T01:23:26;1005.8;;;12.8125;38.5711
73306;BME280;61530;51.158;0.880;2023-09-19T01:24:50;1005.81;;;12.875;37.8605
73306;BME280;61530;51.158;0.880;2023-09-19T01:26:03;1005.84;;;12.9375;38.5011
73306;BME280;61530;51.158;0.880;2023-09-19T01:27:05;1005.85;;;12.875;38.3563
73306;BME280;61530;51.158;0.880;2023-09-19T01:28:00;1005.85;;;12.875;39.4707
73306;BME280;61530;51.158;0.880;2023-09-19T01:28:56;1005.84;;;12.9375;38.4831
73306;BME280;61530;51.158;0.880;2023-09-19T01:30:08;1005.84;;;12.875;37.9576
73306;BME280;61530;51.158;0.880;2023-09-19T01:30:57;1005.85;;;12.875;38.3903
73306;BME280;61530;51.158;0.880;2023-09-19T01:32:04;1005.9;;;12.875;38.6211
73306;BME280;61530;51.158;0.880;2023-09-19T01:33:03;1005.87;;;12.875;38.7368
73306;BME280;61530;51.158;0.880;2023-09-19T01:34:08;1005.9;;;12.8125;39.3317
73306;BME280;61530;51.158;0.880;2023-09-19T01:35:14;1005.87;;;12.875;39.0662
73306;BME280;61530;51.158;0.880;2023-09-19T01:36:20;1005.87;;;12.8125;38.3851
73306;BME280;61530;51.158;0.880;2023-09-19T01:37:21;1005.87;;;12.75;39.2511
73306;BME280;61530;51.158;0.880;2023-09-19T01:38:26;1005.86;;;12.75;39.0142
73306;BME280;61530;51.158;0.880;2023-09-19T01:39:26;1005.86;;;12.75;37.8878
73306;BME280;61530;51.158;0.880;2023-09-19T01:40:32;1005.83;;;12.75;37.8595
73306;BME280;61530;51.158;0.880;2023-09-19T01:42:04;1005.84;;;12.6875;37.848
73306;BME280;61530;51.158;0.880;2023-09-19T01:42:50;1005.82;;;12.6875;38.4429
73306;BME280;61530;51.158;0.880;2023-09-19T01:43:46;1005.83;;;12.6875;39.5572
73306;BME280;61530;51.158;0.880;2023-09-19T01:44:59;1005.83;;;12.875;39.8054
73306;BME280;61530;51.158;0.880;2023-09-19T01:45:57;1005.85;;;12.75;39.4472
73306;BME280;61530;51.158;0.880;2023-09-19T01:46:58;1005.87;;;12.75;39.1353
73306;BME280;61530;51.158;0.880;2023-09-19T01:47:56;1005.87;;;12.6875;38.067
73306;BME280;61530;51.158;0.880;2023-09-19T01:49:14;1005.88;;;12.6875;39.326
73306;BME280;61530;51.158;0.880;2023-09-19T01:50:11;1005.89;;;12.6875;38.6096
73306;BME280;61530;51.158;0.880;2023-09-19T01:51:10;1005.9;;;12.75;39.1818
73306;BME280;61530;51.158;0.880;2023-09-19T01:52:11;1005.9;;;12.625;39.1299
73306;BME280;61530;51.158;0.880;2023-09-19T01:53:19;1005.96;;;12.6875;39.6149
73306;BME280;61530;51.158;0.880;2023-09-19T01:54:27;1005.95;;;12.6875;39.3088
73306;BME280;61530;51.158;0.880;2023-09-19T01:55:28;1005.98;;;12.75;39.43
73306;BME280;61530;51.158;0.880;2023-09-19T01:56:35;1005.95;;;12.625;38.3561
73306;BME280;61530;51.158;0.880;2023-09-19T01:57:36;1005.97;;;12.625;39.1414
73306;BME280;61530;51.158;0.880;2023-09-19T01:58:42;1005.96;;;12.625;39.4645
73306;BME280;61530;51.158;0.880;2023-09-19T01:59:50;1005.96;;;12.625;38.0382
73306;BME280;61530;51.158;0.880;2023-09-19T02:00:51;1005.96;;;12.5;38.3736
73306;BME280;61530;51.158;0.880;2023-09-19T02:01:56;1005.95;;;12.4375;38.2287
73306;BME280;61530;51.158;0.880;2023-09-19T02:02:56;1005.95;;;12.4375;38.5984
73306;BME280;61530;51.158;0.880;2023-09-19T02:04:02;1005.98;;;12.375;38.42
73306;BME280;61530;51.158;0.880;2023-09-19T02:05:02;1005.98;;;12.4375;38.385
73306;BME280;61530;51.158;0.880;2023-09-19T02:06:08;1005.98;;;12.4375;38.7024
73306;BME280;61530;51.158;0.880;2023-09-19T02:07:14;1005.98;;;12.375;38.4835
73306;BME280;61530;51.158;0.880;2023-09-19T02:08:21;1005.98;;;12.5;39.1243
73306;BME280;61530;51.158;0.880;2023-09-19T02:09:20;1006.0;;;12.375;38.6684
73306;BME280;61530;51.158;0.880;2023-09-19T02:10:26;1005.97;;;12.375;38.7027
73306;BME280;61530;51.158;0.880;2023-09-19T02:11:26;1005.97;;;12.3125;39.3612
73306;BME280;61530;51.158;0.880;2023-09-19T02:12:32;1005.93;;;12.5;39.7306
73306;BME280;61530;51.158;0.880;2023-09-19T02:20:11;1005.92;;;12.25;38.3852
73306;BME280;61530;51.158;0.880;2023-09-19T02:21:16;1005.83;;;12.375;40.2501
73306;BME280;61530;51.158;0.880;2023-09-19T02:22:22;1005.83;;;12.4375;40.3078
73306;BME280;61530;51.158;0.880;2023-09-19T02:23:28;1005.81;;;12.4375;38.6402
73306;BME280;61530;51.158;0.880;2023-09-19T02:24:34;1005.75;;;12.4375;38.8652
73306;BME280;61530;51.158;0.880;2023-09-19T02:25:34;1005.71;;;12.375;39.1655
73306;BME280;61530;51.158;0.880;2023-09-19T02:26:40;1005.72;;;12.375;39.5817
73306;BME280;61530;51.158;0.880;2023-09-19T02:27:40;1005.74;;;12.3125;39.7432
73306;BME280;61530;51.158;0.880;2023-09-19T02:28:46;1005.72;;;12.4375;40.7748
73306;BME280;61530;51.158;0.880;2023-09-19T02:29:52;1005.68;;;12.5;39.7312
73306;BME280;61530;51.158;0.880;2023-09-19T02:30:58;1005.66;;;12.5;39.4659
73306;BME280;61530;51.158;0.880;2023-09-19T02:31:58;1005.69;;;12.625;39.5524
73306;BME280;61530;51.158;0.880;2023-09-19T02:33:04;1005.72;;;12.5;40.2502
73306;BME280;61530;51.158;0.880;2023-09-19T02:34:04;1005.71;;;12.625;40.1003
73306;BME280;61530;51.158;0.880;2023-09-19T02:35:10;1005.73;;;12.5625;40.2501
73306;BME280;61530;51.158;0.880;2023-09-19T02:36:10;1005.73;;;12.6875;40.8326
73306;BME280;61530;51.158;0.880;2023-09-19T02:37:16;1005.75;;;12.6875;41.2594
73306;BME280;61530;51.158;0.880;2023-09-19T02:38:16;1005.73;;;12.5625;39.7656
73306;BME280;61530;51.158;0.880;2023-09-19T02:39:16;1005.73;;;12.5625;40.6424
73306;BME280;61530;51.158;0.880;2023-09-19T02:40:22;1005.73;;;12.5625;40.0945
73306;BME280;61530;51.158;0.880;2023-09-19T02:41:22;1005.73;;;12.5625;40.5385
73306;BME280;61530;51.158;0.880;2023-09-19T02:42:28;1005.74;;;12.5625;40.0483
73306;BME280;61530;51.158;0.880;2023-09-19T02:43:28;1005.73;;;12.6875;40.4924
73306;BME280;61530;51.158;0.880;2023-09-19T02:44:34;1005.74;;;12.5625;40.3078
73306;BME280;61530;51.158;0.880;2023-09-19T02:45:34;1005.76;;;12.625;41.1788
73306;BME280;61530;51.158;0.880;2023-09-19T02:46:40;1005.76;;;12.625;39.6617
73306;BME280;61530;51.158;0.880;2023-09-19T02:47:46;1005.78;;;12.6875;40.2386
73306;BME280;61530;51.158;0.880;2023-09-19T02:48:52;1005.81;;;12.6875;40.6943
73306;BME280;61530;51.158;0.880;2023-09-19T02:49:57;1005.8;;;12.6875;39.8809
73306;BME280;61530;51.158;0.880;2023-09-19T02:50:58;1005.84;;;12.6875;39.8809
73306;BME280;61530;51.158;0.880;2023-09-19T02:52:04;1005.82;;;12.75;40.1982
73306;BME280;61530;51.158;0.880;2023-09-19T02:53:10;1005.83;;;12.75;39.881
73306;BME280;61530;51.158;0.880;2023-09-19T02:54:10;1005.86;;;12.75;39.91
73306;BME280;61530;51.158;0.880;2023-09-19T02:55:17;1005.84;;;12.6875;40.5962
73306;BME280;61530;51.158;0.880;2023-09-19T02:56:16;1005.84;;;12.75;40.1982
73306;BME280;61530;51.158;0.880;2023-09-19T02:57:22;1005.87;;;12.75;40.8502
73306;BME280;61530;51.158;0.880;2023-09-19T02:58:22;1005.87;;;12.75;41.7039
73306;BME280;61530;51.158;0.880;2023-09-19T02:59:28;1005.92;;;12.75;40.8097
73306;BME280;61530;51.158;0.880;2023-09-19T03:00:34;1005.96;;;12.6875;39.6615
73306;BME280;61530;51.158;0.880;2023-09-19T03:01:42;1006.01;;;12.6875;40.0136
73306;BME280;61530;51.158;0.880;2023-09-19T03:02:40;1006.0;;;12.75;39.8924
73306;BME280;61530;51.158;0.880;2023-09-19T03:03:46;1006.04;;;12.625;39.581
73306;BME280;61530;51.158;0.880;2023-09-19T03:04:46;1006.01;;;12.625;39.61
73306;BME280;61530;51.158;0.880;2023-09-19T03:05:52;1006.01;;;12.5625;40.3828
73306;BME280;61530;51.158;0.880;2023-09-19T03:06:58;1006.04;;;12.5625;40.2847
73306;BME280;61530;51.158;0.880;2023-09-19T03:08:04;1006.01;;;12.6875;40.7403
73306;BME280;61530;51.158;0.880;2023-09-19T03:09:04;1006.0;;;12.6875;40.8442
73306;BME280;61530;51.158;0.880;2023-09-19T03:10:10;1006.0;;;12.5625;39.9674
73306;BME280;61530;51.158;0.880;2023-09-19T03:11:10;1006.0;;;12.625;40.6943
73306;BME280;61530;51.158;0.880;2023-09-19T03:12:16;1006.02;;;12.625;40.1867
73306;BME280;61530;51.158;0.880;2023-09-19T03:13:17;1006.04;;;12.625;40.3425
73306;BME280;61530;51.158;0.880;2023-09-19T03:14:22;1006.08;;;12.5625;40.008
73306;BME280;61530;51.158;0.880;2023-09-19T03:15:22;1006.04;;;12.625;39.8985
73306;BME280;61530;51.158;0.880;2023-09-19T03:16:28;1006.04;;;12.625;40.9074
73306;BME280;61530;51.158;0.880;2023-09-19T03:17:34;1006.03;;;12.5;40.2272
73306;BME280;61530;51.158;0.880;2023-09-19T03:18:40;1005.99;;;12.6875;40.4924
73306;BME280;61530;51.158;0.880;2023-09-19T03:19:46;1005.95;;;12.6875;40.1636
73306;BME280;61530;51.158;0.880;2023-09-19T03:20:53;1005.92;;;12.6875;39.8523
73306;BME280;61530;51.158;0.880;2023-09-19T03:21:57;1005.92;;;12.625;40.3655
73306;BME280;61530;51.158;0.880;2023-09-19T03:22:58;1005.92;;;12.75;41.2473
73306;BME280;61530;51.158;0.880;2023-09-19T03:23:58;1005.89;;;12.75;41.1028
73306;BME280;61530;51.158;0.880;2023-09-19T03:25:04;1005.87;;;12.625;40.8897
73306;BME280;61530;51.158;0.880;2023-09-19T03:26:04;1005.87;;;12.6875;40.3655
73306;BME280;61530;51.158;0.880;2023-09-19T03:27:10;1005.86;;;12.6875;40.2675
73306;BME280;61530;51.158;0.880;2023-09-19T03:28:10;1005.89;;;12.625;40.4576
73306;BME280;61530;51.158;0.880;2023-09-19T03:29:16;1005.92;;;12.625;40.4923
73306;BME280;61530;51.158;0.880;2023-09-19T03:30:22;1005.95;;;12.625;40.3424
73306;BME280;61530;51.158;0.880;2023-09-19T03:31:28;1005.96;;;12.6875;40.4116
73306;BME280;61530;51.158;0.880;2023-09-19T03:32:34;1005.96;;;12.6875;41.299
73306;BME280;61530;51.158;0.880;2023-09-19T03:33:40;1005.93;;;12.75;41.0572
73306;BME280;61530;51.158;0.880;2023-09-19T03:34:40;1005.94;;;12.75;40.2098
73306;BME280;61530;51.158;0.880;2023-09-19T03:35:52;1005.9;;;12.6875;40.798
73306;BME280;61530;51.158;0.880;2023-09-19T03:36:46;1005.93;;;12.75;39.9159
73306;BME280;61530;51.158;0.880;2023-09-19T03:37:52;1005.86;;;12.75;40.4116
73306;BME280;61530;51.158;0.880;2023-09-19T03:38:58;1005.85;;;12.75;41.7145
73306;BME280;61530;51.158;0.880;2023-09-19T03:40:05;1005.86;;;12.75;40.3309
73306;BME280;61530;51.158;0.880;2023-09-19T03:41:04;1005.92;;;12.6875;40.6019
73306;BME280;61530;51.158;0.880;2023-09-19T03:42:10;1005.92;;;12.6875;40.3713
73306;BME280;61530;51.158;0.880;2023-09-19T03:43:10;1005.93;;;12.6875;39.9215
73306;BME280;61530;51.158;0.880;2023-09-19T03:44:16;1005.92;;;12.75;40.9306
73306;BME280;61530;51.158;0.880;2023-09-19T03:45:22;1005.94;;;12.625;39.8752
73306;BME280;61530;51.158;0.880;2023-09-19T03:46:28;1005.95;;;12.625;40.031
73306;BME280;61530;51.158;0.880;2023-09-19T03:47:28;1005.96;;;12.6875;40.3251
73306;BME280;61530;51.158;0.880;2023-09-19T03:48:34;1005.93;;;12.625;40.4693
73306;BME280;61530;51.158;0.880;2023-09-19T03:49:34;1005.94;;;12.625;40.4925
73306;BME280;61530;51.158;0.880;2023-09-19T03:50:40;1005.92;;;12.625;39.973
73306;BME280;61530;51.158;0.880;2023-09-19T03:51:46;1005.88;;;12.625;39.3671
73306;BME280;61530;51.158;0.880;2023-09-19T03:52:56;1005.85;;;12.5625;39.5347
73306;BME280;61530;51.158;0.880;2023-09-19T03:53:52;1005.86;;;12.6875;40.654
73306;BME280;61530;51.158;0.880;2023-09-19T03:54:58;1005.83;;;12.625;40.123
73306;BME280;61530;51.158;0.880;2023-09-19T03:55:58;1005.83;;;12.625;39.742
73306;BME280;61530;51.158;0.880;2023-09-19T03:57:04;1005.82;;;12.625;40.3655
73306;BME280;61530;51.158;0.880;2023-09-19T03:58:10;1005.83;;;12.625;40.1345
73306;BME280;61530;51.158;0.880;2023-09-19T03:59:16;1005.81;;;12.625;39.2338
73306;BME280;61530;51.158;0.880;2023-09-19T04:00:21;1005.74;;;12.5625;39.5113
73306;BME280;61530;51.158;0.880;2023-09-19T04:01:22;1005.73;;;12.5625;39.5628
73306;BME280;61530;51.158;0.880;2023-09-19T04:02:22;1005.72;;;12.5;40.504
73306;BME280;61530;51.158;0.880;2023-09-19T04:03:28;1005.72;;;12.375;39.4535
73306;BME280;61530;51.158;0.880;2023-09-19T04:04:28;1005.71;;;12.4375;40.1404
73306;BME280;61530;51.158;0.880;2023-09-19T04:05:34;1005.69;;;12.4375;39.7652
73306;BME280;61530;51.158;0.880;2023-09-19T04:06:34;1005.67;;;12.4375;39.5344
73306;BME280;61530;51.158;0.880;2023-09-19T04:07:40;1005.66;;;12.5625;40.2385
73306;BME280;61530;51.158;0.880;2023-09-19T04:08:46;1005.63;;;12.375;39.3443
73306;BME280;61530;51.158;0.880;2023-09-19T04:09:52;1005.62;;;12.4375;40.227
73306;BME280;61530;51.158;0.880;2023-09-19T04:10:52;1005.64;;;12.4375;40.2558
73306;BME280;61530;51.158;0.880;2023-09-19T04:11:58;1005.62;;;12.5;40.1808
73306;BME280;61530;51.158;0.880;2023-09-19T04:12:58;1005.62;;;12.5625;40.1231
73306;BME280;61530;51.158;0.880;2023-09-19T04:14:04;1005.62;;;12.5;40.504
73306;BME280;61530;51.158;0.880;2023-09-19T04:15:05;1005.62;;;12.4375;40.6367
73306;BME280;61530;51.158;0.880;2023-09-19T04:16:10;1005.58;;;12.4375;41.3347
73306;BME280;61530;51.158;0.880;2023-09-19T04:17:10;1005.6;;;12.4375;40.7175
73306;BME280;61530;51.158;0.880;2023-09-19T04:18:16;1005.59;;;12.4375;39.4018
73306;BME280;61530;51.158;0.880;2023-09-19T04:19:16;1005.59;;;12.5;40.0538
73306;BME280;61530;51.158;0.880;2023-09-19T04:20:22;1005.57;;;12.5;40.7348
73306;BME280;61530;51.158;0.880;2023-09-19T04:21:22;1005.58;;;12.4375;40.1751
73306;BME280;61530;51.158;0.880;2023-09-19T04:22:22;1005.55;;;12.5;41.0982
73306;BME280;61530;51.158;0.880;2023-09-19T04:23:28;1005.54;;;12.375;39.6616
73306;BME280;61530;51.158;0.880;2023-09-19T04:24:28;1005.53;;;12.375;41.1728
73306;BME280;61530;51.158;0.880;2023-09-19T04:25:34;1005.54;;;12.375;40.0426
73306;BME280;61530;51.158;0.880;2023-09-19T04:26:34;1005.52;;;12.4375;40.827
73306;BME280;61530;51.158;0.880;2023-09-19T04:27:40;1005.5;;;12.4375;39.8231
73306;BME280;61530;51.158;0.880;2023-09-19T04:28:40;1005.5;;;12.4375;39.5294
73306;BME280;61530;51.158;0.880;2023-09-19T04:29:46;1005.5;;;12.4375;40.2156
73306;BME280;61530;51.158;0.880;2023-09-19T04:30:52;1005.47;;;12.5;40.1867
73306;BME280;61530;51.158;0.880;2023-09-19T04:31:58;1005.44;;;12.5625;40.7693
73306;BME280;61530;51.158;0.880;2023-09-19T04:32:58;1005.47;;;12.625;40.1577
73306;BME280;61530;51.158;0.880;2023-09-19T04:34:04;1005.47;;;12.5625;40.3655
73306;BME280;61530;51.158;0.880;2023-09-19T04:35:10;1005.44;;;12.625;40.5328
73306;BME280;61530;51.158;0.880;2023-09-19T04:36:16;1005.42;;;12.5625;40.9424
73306;BME280;61530;51.158;0.880;2023-09-19T04:37:16;1005.43;;;12.625;39.7885
73306;BME280;61530;51.158;0.880;2023-09-19T04:38:22;1005.4;;;12.625;40.3309
73306;BME280;61530;51.158;0.880;2023-09-19T04:39:27;1005.39;;;12.625;40.7925
73306;BME280;61530;51.158;0.880;2023-09-19T04:40:28;1005.39;;;12.6875;41.0923
73306;BME280;61530;51.158;0.880;2023-09-19T04:41:28;1005.39;;;12.6875;40.2963
73306;BME280;61530;51.158;0.880;2023-09-19T04:42:34;1005.41;;;12.625;40.1289
73306;BME280;61530;51.158;0.880;2023-09-19T04:43:40;1005.39;;;12.75;40.3367
73306;BME280;61530;51.158;0.880;2023-09-19T04:44:46;1005.41;;;12.625;40.0654
73306;BME280;61530;51.158;0.880;2023-09-19T04:45:46;1005.4;;;12.625;39.8923
73306;BME280;61530;51.158;0.880;2023-09-19T04:46:52;1005.4;;;12.625;39.0725
73306;BME280;61530;51.158;0.880;2023-09-19T04:47:52;1005.37;;;12.625;39.061
73306;BME280;61530;51.158;0.880;2023-09-19T04:48:58;1005.36;;;12.6875;38.9397
73306;BME280;61530;51.158;0.880;2023-09-19T04:49:58;1005.37;;;12.625;39.0498
73306;BME280;61530;51.158;0.880;2023-09-19T04:51:04;1005.4;;;12.6875;39.2748
73306;BME280;61530;51.158;0.880;2023-09-19T04:52:04;1005.37;;;12.6875;39.8692
73306;BME280;61530;51.158;0.880;2023-09-19T04:53:10;1005.38;;;12.625;39.2227
73306;BME280;61530;51.158;0.880;2023-09-19T04:54:10;1005.38;;;12.625;40.1232
73306;BME280;61530;51.158;0.880;2023-09-19T04:55:16;1005.37;;;12.5;39.2293
73306;BME280;61530;51.158;0.880;2023-09-19T04:56:22;1005.37;;;12.625;40.1868
73306;BME280;61530;51.158;0.880;2023-09-19T04:57:28;1005.42;;;12.625;40.7289
73306;BME280;61530;51.158;0.880;2023-09-19T04:58:34;1005.4;;;12.6875;41.7893
73306;BME280;61530;51.158;0.880;2023-09-19T04:59:40;1005.42;;;12.6875;40.5904
73306;BME280;61530;51.158;0.880;2023-09-19T05:00:40;1005.41;;;12.5625;41.2935
73306;BME280;61530;51.158;0.880;2023-09-19T05:01:46;1005.43;;;12.625;41.3916
73306;BME280;61530;51.158;0.880;2023-09-19T05:02:54;1005.37;;;12.6875;41.7091
73306;BME280;61530;51.158;0.880;2023-09-19T05:03:58;1005.38;;;12.6875;41.3402
73306;BME280;61530;51.158;0.880;2023-09-19T05:04:58;1005.39;;;12.6875;41.4037
73306;BME280;61530;51.158;0.880;2023-09-19T05:06:04;1005.37;;;12.6875;40.6423
73306;BME280;61530;51.158;0.880;2023-09-19T05:07:04;1005.39;;;12.5625;41.7495
73306;BME280;61530;51.158;0.880;2023-09-19T05:08:10;1005.38;;;12.625;41.1845
73306;BME280;61530;51.158;0.880;2023-09-19T05:09:10;1005.41;;;12.6875;40.7116
73306;BME280;61530;51.158;0.880;2023-09-19T05:10:16;1005.42;;;12.75;40.5616
73306;BME280;61530;51.158;0.880;2023-09-19T05:11:22;1005.42;;;12.75;40.8037
73306;BME280;61530;51.158;0.880;2023-09-19T05:12:28;1005.43;;;12.75;41.6456
73306;BME280;61530;51.158;0.880;2023-09-19T05:13:28;1005.43;;;12.6875;41.069
73306;BME280;61530;51.158;0.880;2023-09-19T05:14:34;1005.4;;;12.8125;41.5707
73306;BME280;61530;51.158;0.880;2023-09-19T05:15:34;1005.37;;;12.8125;41.3284
73306;BME280;61530;51.158;0.880;2023-09-19T05:16:40;1005.42;;;12.875;41.6329
73306;BME280;61530;51.158;0.880;2023-09-19T05:17:40;1005.39;;;12.875;41.9729
73306;BME280;61530;51.158;0.880;2023-09-19T05:18:46;1005.36;;;12.8125;41.8812
73306;BME280;61530;51.158;0.880;2023-09-19T05:19:46;1005.37;;;12.9375;41.8751
73306;BME280;61530;51.158;0.880;2023-09-19T05:20:52;1005.39;;;12.9375;42.7157
73306;BME280;61530;51.158;0.880;2023-09-19T05:21:58;1005.36;;;12.875;42.1864
73306;BME280;61530;51.158;0.880;2023-09-19T05:23:05;1005.37;;;13.0;42.1815
73306;BME280;61530;51.158;0.880;2023-09-19T05:24:10;1005.35;;;13.0625;42.7399
73306;BME280;61530;51.158;0.880;2023-09-19T05:25:16;1005.33;;;13.0625;43.7161
73306;BME280;61530;51.158;0.880;2023-09-19T05:26:16;1005.31;;;13.0625;43.3827
73306;BME280;61530;51.158;0.880;2023-09-19T05:27:22;1005.25;;;13.125;43.103
73306;BME280;61530;51.158;0.880;2023-09-19T05:28:22;1005.22;;;13.1875;43.1607
73306;BME280;61530;51.158;0.880;2023-09-19T05:29:28;1005.22;;;13.1875;43.5627
73306;BME280;61530;51.158;0.880;2023-09-19T05:30:35;1005.21;;;13.125;43.7573
73306;BME280;61530;51.158;0.880;2023-09-19T05:31:40;1005.19;;;13.125;43.4821
73306;BME280;61530;51.158;0.880;2023-09-19T05:32:40;1005.25;;;13.1875;44.2285
73306;BME280;61530;51.158;0.880;2023-09-19T05:33:46;1005.22;;;13.1875;43.8393
73306;BME280;61530;51.158;0.880;2023-09-19T05:34:52;1005.2;;;13.125;43.5392
73306;BME280;61530;51.158;0.880;2023-09-19T05:35:58;1005.18;;;13.1875;44.5232